Time;durP1;ratioP1;P1;durP2;ratioP2;P2;SDS_P1;SDS_P2;PMS_P1;PMS_P2;Temp;Humidity;BMP_temperature;BMP_pressure;BME280_temperature;BME280_humidity;BME280_pressure;Samples;Min_cycle;Max_cycle;Signal;HPM_P1;HPM_P2
2021/06/26 00:00:05;;;;;;;;;;;16.80;99.90;;;15.74;91.29;96033.13;10463091;28;2086;-80
2021/06/26 00:05:08;;;;;;;;;;;16.80;99.90;;;15.66;91.73;96029.22;10459506;28;2040;-79
2021/06/26 00:10:11;;;;;;;;;;;16.70;99.90;;;15.54;92.29;96037.00;10446093;28;1981;-79
2021/06/26 00:15:14;;;;;;;;;;;16.70;99.90;;;15.53;93.06;96029.97;10437742;28;2119;-81
2021/06/26 00:20:36;;;;;;;;;;;16.60;99.90;;;15.33;93.65;96030.31;10457587;28;2162;-80
2021/06/26 00:25:39;;;;;;;;;;;16.50;99.90;;;15.22;94.53;96029.69;10477792;28;2012;-80
2021/06/26 00:30:43;;;;;;;;;;;16.40;99.90;;;15.11;95.23;96029.06;10469562;28;2100;-79
2021/06/26 00:35:51;;;;;;;;;;;16.30;99.90;;;14.99;95.58;96027.91;10459130;28;2339;-78
2021/06/26 00:40:53;;;;;;;;;;;16.20;99.90;;;14.80;96.29;96022.50;10466356;28;2109;-81
2021/06/26 00:45:56;;;;;;;;;;;16.00;99.90;;;14.75;97.68;96014.47;10462268;28;2210;-80
2021/06/26 00:50:59;;;;;;;;;;;15.90;99.90;;;14.68;97.78;96008.63;10475829;28;2080;-81
2021/06/26 00:56:02;;;;;;;;;;;15.90;99.90;;;14.52;98.13;96016.97;10488338;28;2005;-79
2021/06/26 01:01:05;;;;;;;;;;;15.80;99.90;;;14.44;99.06;96008.66;10483899;28;2149;-79
2021/06/26 01:06:07;;;;;;;;;;;15.70;99.90;;;14.34;99.09;96005.03;10448117;28;2322;-79
2021/06/26 01:11:10;;;;;;;;;;;15.60;99.90;;;14.36;100.00;96003.91;10464211;28;2330;-78
2021/06/26 01:16:13;;;;;;;;;;;15.60;99.90;;;14.24;99.57;96007.84;10459630;28;2104;-80
2021/06/26 01:21:15;;;;;;;;;;;15.50;99.90;;;14.12;100.00;96007.47;10463745;28;2089;-81
2021/06/26 01:26:18;;;;;;;;;;;15.40;99.90;;;14.08;100.00;96001.06;10469551;28;2072;-78
2021/06/26 01:31:21;;;;;;;;;;;15.30;99.90;;;14.34;100.00;96001.50;10476201;28;2071;-78
2021/06/26 01:36:24;;;;;;;;;;;15.30;99.90;;;14.31;100.00;95996.69;10466590;28;2103;-82
2021/06/26 01:41:26;;;;;;;;;;;15.40;99.90;;;14.19;100.00;95994.44;10459770;28;2068;-80
2021/06/26 01:46:29;;;;;;;;;;;15.40;99.90;;;14.07;100.00;95984.03;10484615;28;2097;-80
2021/06/26 01:51:32;;;;;;;;;;;15.30;99.90;;;13.91;100.00;95979.91;10483145;28;2153;-79
2021/06/26 01:56:35;;;;;;;;;;;15.10;99.90;;;13.89;100.00;95979.41;10486560;28;2317;-79
2021/06/26 02:01:37;;;;;;;;;;;15.10;99.90;;;13.84;100.00;95979.44;10453593;28;2257;-79
2021/06/26 02:06:40;;;;;;;;;;;15.00;99.90;;;13.84;100.00;95989.47;10464843;28;2013;-78
2021/06/26 02:11:43;;;;;;;;;;;14.90;99.90;;;13.83;100.00;95985.16;10463893;28;2079;-79
2021/06/26 02:16:46;;;;;;;;;;;15.00;99.90;;;13.92;100.00;95992.31;10484857;28;1907;-79
2021/06/26 02:21:49;;;;;;;;;;;15.00;99.90;;;14.03;100.00;95993.81;10482285;28;2145;-80
2021/06/26 02:26:51;;;;;;;;;;;15.00;99.90;;;13.85;100.00;95985.66;10470367;28;2046;-80
2021/06/26 02:31:54;;;;;;;;;;;15.10;99.90;;;13.72;100.00;95984.47;10474360;28;2211;-80
2021/06/26 02:36:57;;;;;;;;;;;14.90;99.90;;;13.62;100.00;95998.91;10471752;28;2127;-79
2021/06/26 02:42:00;;;;;;;;;;;14.80;99.90;;;13.55;100.00;95993.03;10479783;28;2124;-80
2021/06/26 02:47:02;;;;;;;;;;;14.80;99.90;;;13.49;100.00;95999.59;10475819;28;2051;-80
2021/06/26 02:52:06;;;;;;;;;;;14.60;99.90;;;13.83;100.00;95994.06;10479307;28;2032;-80
2021/06/26 02:57:08;;;;;;;;;;;14.80;99.90;;;13.89;100.00;95981.28;10462965;28;2084;-79
2021/06/26 03:02:11;;;;;;;;;;;14.90;99.90;;;14.05;100.00;95983.50;10458163;28;2127;-79
2021/06/26 03:07:14;;;;;;;;;;;15.00;99.90;;;13.92;100.00;95992.31;10462786;28;2108;-80
2021/06/26 03:12:17;;;;;;;;;;;15.10;99.90;;;13.96;100.00;95987.94;10468884;28;2100;-81
2021/06/26 03:17:19;;;;;;;;;;;15.10;99.90;;;13.95;100.00;95986.34;10465513;28;2206;-79
2021/06/26 03:22:22;;;;;;;;;;;15.00;99.90;;;13.89;100.00;95976.69;10448303;28;1975;-82
2021/06/26 03:27:25;;;;;;;;;;;15.00;99.90;;;13.91;100.00;95974.50;10456996;28;2204;-81
2021/06/26 03:32:27;;;;;;;;;;;15.00;99.90;;;13.91;100.00;95982.59;10463055;28;2127;-79
2021/06/26 03:37:30;;;;;;;;;;;15.00;99.90;;;13.84;100.00;95989.47;10461238;28;2051;-80
2021/06/26 03:42:33;;;;;;;;;;;15.00;99.90;;;14.04;100.00;95990.00;10465062;28;2166;-81
2021/06/26 03:47:36;;;;;;;;;;;15.00;99.90;;;14.20;100.00;95990.63;10451480;28;2230;-78
2021/06/26 03:52:39;;;;;;;;;;;15.10;99.90;;;14.46;98.48;95985.69;10454152;28;2124;-81
2021/06/26 03:57:41;;;;;;;;;;;15.30;99.90;;;14.69;96.83;95983.97;10449144;28;2222;-81
2021/06/26 04:02:44;;;;;;;;;;;15.50;99.90;;;14.93;93.89;95975.75;10453413;28;2254;-82
2021/06/26 04:07:47;;;;;;;;;;;15.80;99.90;;;15.01;94.50;95972.34;10467977;28;2056;-79
2021/06/26 04:12:49;;;;;;;;;;;15.90;99.90;;;15.30;92.69;95979.47;10462942;28;2052;-79
2021/06/26 04:17:52;;;;;;;;;;;16.10;99.90;;;15.54;91.40;95985.50;10457325;28;2226;-81
2021/06/26 04:22:55;;;;;;;;;;;16.30;99.90;;;15.66;90.46;95985.06;10462057;28;2154;-80
2021/06/26 04:28:17;;;;;;;;;;;16.50;99.90;;;15.88;89.65;95987.84;10464335;28;2203;-79
2021/06/26 04:33:40;;;;;;;;;;;16.70;99.90;;;16.33;87.14;95988.00;10456990;28;2123;-81
2021/06/26 04:38:44;;;;;;;;;;;16.90;99.90;;;16.64;84.42;95993.56;10447564;28;2071;-79
2021/06/26 04:43:46;;;;;;;;;;;17.20;99.90;;;16.79;83.88;95988.91;10486598;28;2168;-79
2021/06/26 04:48:49;;;;;;;;;;;17.40;99.90;;;16.94;81.67;95991.25;10486528;28;2143;-79
2021/06/26 04:53:52;;;;;;;;;;;17.60;99.90;;;17.09;81.67;95992.78;10488953;28;2168;-77
2021/06/26 04:58:54;;;;;;;;;;;17.80;99.90;;;17.28;81.11;95991.47;10487501;28;2022;-79
2021/06/26 05:03:57;;;;;;;;;;;18.00;99.90;;;17.51;79.49;95994.16;10485340;28;2145;-77
2021/06/26 05:09:00;;;;;;;;;;;18.30;99.90;;;17.43;78.76;95992.19;10482563;28;2281;-77
2021/06/26 05:14:02;;;;;;;;;;;18.30;99.90;;;17.79;77.45;95986.63;10477725;28;2273;-79
2021/06/26 05:19:05;;;;;;;;;;;18.50;99.90;;;17.79;76.82;95984.72;10477439;28;2056;-79
2021/06/26 05:24:08;;;;;;;;;;;18.60;99.90;;;17.50;78.08;95987.94;10462751;28;2091;-79
2021/06/26 05:29:10;;;;;;;;;;;18.50;99.90;;;17.56;76.23;95985.88;10471732;28;2063;-79
2021/06/26 05:34:13;;;;;;;;;;;18.60;99.90;;;17.58;75.54;95980.94;10479706;28;2281;-79
2021/06/26 05:39:16;;;;;;;;;;;18.60;99.90;;;18.35;73.49;95991.28;10476848;28;2205;-81
2021/06/26 05:44:19;;;;;;;;;;;18.90;99.90;;;18.08;71.88;96002.44;10464989;28;1914;-81
2021/06/26 05:49:21;;;;;;;;;;;19.10;99.90;;;18.10;72.40;96000.97;10477619;28;1687;-80
2021/06/26 05:54:24;;;;;;;;;;;19.10;99.90;;;18.28;72.24;96004.56;10468022;28;2045;-81
2021/06/26 05:59:27;;;;;;;;;;;19.10;99.90;;;18.75;71.10;96009.44;10458929;28;2255;-80
2021/06/26 06:04:29;;;;;;;;;;;19.40;99.90;;;18.93;69.52;96005.59;10459963;28;2262;-80
2021/06/26 06:09:32;;;;;;;;;;;19.60;99.90;;;18.63;69.63;95997.22;10452744;28;2073;-80
2021/06/26 06:14:35;;;;;;;;;;;19.80;99.90;;;18.55;69.49;95987.13;10442066;28;2123;-81
2021/06/26 06:19:38;;;;;;;;;;;19.80;99.90;;;18.55;70.19;95983.63;10463120;28;2087;-79
2021/06/26 06:24:41;;;;;;;;;;;19.50;99.90;;;18.80;70.30;95969.25;10451575;28;2123;-80
2021/06/26 06:29:44;;;;;;;;;;;19.50;99.90;;;19.27;67.32;95965.78;10461419;28;2072;-80
2021/06/26 06:34:46;;;;;;;;;;;20.00;99.90;;;19.55;66.91;95974.41;10433407;28;2104;-80
2021/06/26 06:39:49;;;;;;;;;;;20.40;99.90;;;19.83;65.53;95977.53;10460020;28;2121;-81
2021/06/26 06:44:52;;;;;;;;;;;20.70;99.90;;;20.05;65.37;95973.75;10440463;28;2119;-81
2021/06/26 06:49:54;;;;;;;;;;;20.80;99.90;;;19.78;64.84;95975.75;10453805;28;2166;-79
2021/06/26 06:54:57;;;;;;;;;;;20.80;99.90;;;19.06;67.29;95971.13;10463682;28;2111;-81
2021/06/26 07:00:00;;;;;;;;;;;20.60;99.90;;;19.80;65.80;95975.47;10454377;28;2112;-79
2021/06/26 07:05:02;;;;;;;;;;;20.40;99.90;;;20.12;64.16;95969.34;10457751;28;2064;-79
2021/06/26 07:10:05;;;;;;;;;;;20.90;99.90;;;20.38;60.94;95960.22;10458710;28;2016;-81
2021/06/26 07:15:08;;;;;;;;;;;21.30;99.90;;;20.66;61.46;95971.44;10456890;28;2270;-82
2021/06/26 07:20:10;;;;;;;;;;;21.40;99.90;;;20.21;61.87;95966.56;10457924;28;2138;-82
2021/06/26 07:25:13;;;;;;;;;;;21.30;99.90;;;20.41;62.52;95954.88;10455824;28;2188;-80
2021/06/26 07:30:16;;;;;;;;;;;21.30;99.90;;;21.00;61.45;95943.81;10428225;28;3303;-81
2021/06/26 07:35:18;;;;;;;;;;;21.50;99.90;;;20.29;61.39;95949.31;10444111;28;2526;-79
2021/06/26 07:40:21;;;;;;;;;;;21.30;99.90;;;20.32;60.53;95951.41;10466505;28;2318;-82
2021/06/26 07:45:24;;;;;;;;;;;21.30;99.90;;;21.14;59.03;95942.72;10462125;28;2384;-81
2021/06/26 07:50:27;;;;;;;;;;;21.70;99.90;;;20.12;61.05;95952.19;10473564;28;2079;-78
2021/06/26 07:55:31;;;;;;;;;;;21.80;99.90;;;20.33;60.51;95942.09;10486749;28;2168;-79
2021/06/26 08:00:34;;;;;;;;;;;21.40;99.90;;;20.56;59.14;95939.88;10479059;28;2175;-78
2021/06/26 08:05:37;;;;;;;;;;;21.50;99.90;;;21.22;58.75;95919.97;10478267;28;2392;-79
2021/06/26 08:10:40;;;;;;;;;;;21.90;99.90;;;20.57;60.77;95925.09;10449381;28;2139;-79
2021/06/26 08:15:43;;;;;;;;;;;21.80;99.90;;;20.55;60.04;95923.78;10477928;28;2203;-81
2021/06/26 08:20:46;;;;;;;;;;;21.60;99.90;;;20.77;57.47;95918.00;10461878;28;2059;-80
2021/06/26 08:25:48;;;;;;;;;;;21.60;99.90;;;21.33;57.08;95907.50;10466963;28;2116;-80
2021/06/26 08:30:51;;;;;;;;;;;22.00;99.90;;;21.58;56.94;95909.13;10467387;28;2015;-80
2021/06/26 08:35:54;;;;;;;;;;;22.50;99.90;;;21.23;58.11;95913.34;10475536;28;2175;-81
2021/06/26 08:40:56;;;;;;;;;;;22.20;99.90;;;21.20;58.06;95911.31;10482370;28;2059;-80
2021/06/26 08:45:59;;;;;;;;;;;22.20;99.90;;;21.21;54.22;95912.91;10467998;28;2056;-80
2021/06/26 08:51:02;;;;;;;;;;;22.30;99.90;;;21.07;55.81;95910.50;10463060;28;2088;-80
2021/06/26 08:56:04;;;;;;;;;;;22.10;99.90;;;21.17;56.00;95912.78;10444352;28;2066;-80
2021/06/26 09:01:07;;;;;;;;;;;22.30;99.90;;;21.46;53.77;95894.66;10461559;28;2135;-80
2021/06/26 09:06:10;;;;;;;;;;;22.30;99.90;;;21.72;52.63;95900.59;10476887;28;2411;-79
2021/06/26 09:11:12;;;;;;;;;;;22.60;99.90;;;21.65;53.92;95899.56;10480856;28;2218;-80
2021/06/26 09:16:16;;;;;;;;;;;22.60;99.90;;;21.99;53.21;95896.34;10473738;28;2089;-81
2021/06/26 09:21:22;;;;;;;;;;;22.70;99.90;;;21.49;53.44;95891.22;10462037;28;2126;-82
2021/06/26 09:26:25;;;;;;;;;;;22.70;99.90;;;22.07;53.21;95895.41;10465958;28;2079;-79
2021/06/26 09:31:27;;;;;;;;;;;22.70;99.90;;;21.81;52.55;95894.97;10462145;28;2097;-81
2021/06/26 09:36:30;;;;;;;;;;;23.00;99.90;;;22.19;51.08;95893.84;10460141;28;2029;-79
2021/06/26 09:41:33;;;;;;;;;;;23.10;99.90;;;21.97;52.15;95890.44;10464545;28;2119;-81
2021/06/26 09:46:35;;;;;;;;;;;23.00;99.90;;;22.12;52.11;95889.75;10459161;28;2107;-79
2021/06/26 09:51:38;;;;;;;;;;;23.00;99.90;;;22.02;50.50;95890.19;10457879;28;2226;-79
2021/06/26 09:56:41;;;;;;;;;;;23.30;99.90;;;21.77;52.60;95883.94;10459924;28;2257;-77
2021/06/26 10:01:45;;;;;;;;;;;23.00;99.90;;;22.11;50.96;95868.19;10438167;28;2160;-81
2021/06/26 10:06:49;;;;;;;;;;;23.00;99.90;;;21.35;52.37;95858.72;10441317;28;2043;-78
2021/06/26 10:11:52;;;;;;;;;;;22.80;99.90;;;22.05;50.39;95862.13;10463696;28;2060;-80
2021/06/26 10:16:54;;;;;;;;;;;22.90;99.90;;;21.94;52.04;95861.00;10470596;28;2047;-82
2021/06/26 10:21:57;;;;;;;;;;;23.00;99.90;;;21.69;50.77;95860.22;10464230;28;2256;-80
2021/06/26 10:27:00;;;;;;;;;;;23.00;99.90;;;22.40;50.53;95850.69;10440818;28;3328;-80
2021/06/26 10:32:02;;;;;;;;;;;23.10;99.90;;;22.37;49.43;95859.56;10440560;28;2386;-81
2021/06/26 10:37:05;;;;;;;;;;;23.50;99.90;;;22.99;49.52;95849.19;10454425;28;2109;-79
2021/06/26 10:42:08;;;;;;;;;;;23.70;99.90;;;23.61;45.42;95853.94;10456996;28;1954;-82
2021/06/26 10:47:11;;;;;;;;;;;24.80;99.90;;;23.63;44.71;95846.13;10470288;28;2048;-80
2021/06/26 10:52:13;;;;;;;;;;;25.60;99.90;;;24.40;43.07;95839.25;10475030;28;2080;-79
2021/06/26 10:57:16;;;;;;;;;;;26.20;99.90;;;24.01;44.24;95850.16;10476948;28;1949;-79
2021/06/26 11:02:19;;;;;;;;;;;26.30;99.90;;;24.69;43.56;95846.91;10445329;28;2251;-80
2021/06/26 11:07:22;;;;;;;;;;;26.60;99.90;;;24.57;42.72;95840.78;10465663;28;2108;-81
2021/06/26 11:12:25;;;;;;;;;;;26.80;99.90;;;24.47;42.83;95840.19;10444505;28;2154;-81
2021/06/26 11:17:27;;;;;;;;;;;27.30;99.90;;;25.32;41.10;95846.53;10460858;28;2091;-80
2021/06/26 11:22:30;;;;;;;;;;;27.50;99.90;;;24.62;42.88;95841.28;10454598;28;2147;-81
2021/06/26 11:27:35;;;;;;;;;;;27.00;99.90;;;24.05;44.58;95836.47;10468487;28;2108;-81
2021/06/26 11:32:40;;;;;;;;;;;26.50;99.90;;;24.16;44.61;95832.03;10486476;28;2123;-78
2021/06/26 11:37:43;;;;;;;;;;;26.20;99.90;;;23.44;46.51;95833.09;10491782;28;1996;-78
2021/06/26 11:42:45;;;;;;;;;;;25.30;99.90;;;23.49;45.16;95832.06;10459985;28;2140;-77
2021/06/26 11:47:48;;;;;;;;;;;24.70;99.90;;;23.39;46.20;95829.81;10475950;28;2091;-80
2021/06/26 11:52:51;;;;;;;;;;;24.60;99.90;;;23.76;45.15;95821.34;10455261;28;2277;-78
2021/06/26 11:57:54;;;;;;;;;;;24.60;99.90;;;23.59;46.27;95827.94;10476484;28;2359;-79
2021/06/26 12:02:56;;;;;;;;;;;24.80;99.90;;;23.42;46.24;95824.44;10444159;28;2038;-82
2021/06/26 12:07:59;;;;;;;;;;;24.70;99.90;;;23.32;46.38;95816.75;10467615;28;2108;-80
2021/06/26 12:13:02;;;;;;;;;;;24.40;99.90;;;23.75;45.95;95825.22;10464295;28;2064;-82
2021/06/26 12:18:05;;;;;;;;;;;24.60;99.90;;;23.65;46.49;95819.13;10457355;28;2175;-80
2021/06/26 12:23:08;;;;;;;;;;;24.70;99.90;;;23.78;44.86;95811.56;10462559;28;2111;-81
2021/06/26 12:28:11;;;;;;;;;;;24.60;99.90;;;24.12;44.54;95809.19;10470327;28;2008;-79
2021/06/26 12:33:13;;;;;;;;;;;24.90;99.90;;;24.82;42.97;95819.28;10470214;28;2067;-82
2021/06/26 12:38:16;;;;;;;;;;;25.50;99.90;;;23.93;43.97;95820.94;10464817;28;2155;-81
2021/06/26 12:43:19;;;;;;;;;;;25.20;99.90;;;23.87;43.63;95816.88;10463000;28;2116;-81
2021/06/26 12:48:26;;;;;;;;;;;24.90;99.90;;;24.28;43.21;95805.22;10451234;28;2157;-82
2021/06/26 12:53:28;;;;;;;;;;;25.30;99.90;;;24.49;43.25;95804.91;10466943;28;2064;-81
2021/06/26 12:58:31;;;;;;;;;;;25.30;99.90;;;24.26;43.48;95791.06;10448446;28;1850;-80
2021/06/26 13:03:37;;;;;;;;;;;25.40;99.90;;;23.94;43.82;95786.84;10456828;28;2250;-81
2021/06/26 13:08:39;;;;;;;;;;;25.10;99.50;;;23.94;44.03;95790.38;10456227;28;2086;-81
2021/06/26 13:13:43;;;;;;;;;;;25.00;99.90;;;24.46;43.14;95783.63;10468794;28;2074;-79
2021/06/26 13:18:46;;;;;;;;;;;25.30;99.70;;;24.22;43.03;95768.22;10464096;28;2183;-80
2021/06/26 13:23:49;;;;;;;;;;;25.50;98.30;;;24.54;43.12;95766.13;10441779;28;2084;-81
2021/06/26 13:28:51;;;;;;;;;;;25.50;98.40;;;24.62;41.43;95772.56;10453932;28;2183;-82
2021/06/26 13:34:06;;;;;;;;;;;25.60;96.80;;;23.84;43.23;95768.19;10461286;28;2241;-81
2021/06/26 13:39:09;;;;;;;;;;;25.20;96.90;;;24.75;41.99;95763.00;10445619;28;2158;-81
2021/06/26 13:44:22;;;;;;;;;;;25.50;97.60;;;24.83;42.64;95760.38;10460960;28;2068;-82
2021/06/26 13:49:24;;;;;;;;;;;25.70;97.60;;;25.10;41.67;95762.06;10452815;28;2099;-80
2021/06/26 13:54:27;;;;;;;;;;;26.00;96.60;;;25.27;40.70;95767.06;10457890;28;2093;-82
2021/06/26 13:59:30;;;;;;;;;;;26.30;94.40;;;25.22;40.04;95759.13;10459438;28;2244;-80
2021/06/26 14:04:32;;;;;;;;;;;26.40;92.70;;;25.12;41.92;95756.19;10444428;28;2347;-81
2021/06/26 14:09:35;;;;;;;;;;;26.10;94.90;;;25.41;40.03;95751.94;10460570;28;2084;-81
2021/06/26 14:14:38;;;;;;;;;;;26.20;93.50;;;25.42;40.38;95764.53;10457297;28;2124;-81
2021/06/26 14:19:41;;;;;;;;;;;26.30;92.50;;;24.90;39.71;95746.75;10460077;28;2117;-79
2021/06/26 14:24:43;;;;;;;;;;;26.40;89.90;;;25.29;39.39;95748.22;10469174;28;2240;-79
2021/06/26 14:29:46;;;;;;;;;;;26.30;90.50;;;25.92;38.92;95740.50;10472963;28;2056;-81
2021/06/26 14:34:49;;;;;;;;;;;26.60;90.30;;;25.67;37.71;95746.44;10458295;28;2159;-82
2021/06/26 14:39:52;;;;;;;;;;;26.60;88.00;;;25.05;38.11;95748.59;10450650;28;2037;-80
2021/06/26 14:44:55;;;;;;;;;;;26.40;86.80;;;25.22;39.11;95753.59;10451680;28;2115;-81
2021/06/26 14:49:57;;;;;;;;;;;26.20;89.00;;;25.34;39.25;95749.88;10446096;28;2040;-82
2021/06/26 14:55:00;;;;;;;;;;;26.20;89.00;;;25.42;37.52;95745.28;10471950;28;2097;-82
2021/06/26 15:00:03;;;;;;;;;;;26.30;87.00;;;25.69;39.23;95740.53;10475942;28;2311;-80
2021/06/26 15:05:05;;;;;;;;;;;26.60;88.40;;;24.60;42.25;95750.13;10475200;28;2054;-82
2021/06/26 15:10:08;;;;;;;;;;;26.10;90.10;;;24.78;41.55;95737.50;10440123;28;1754;-80
2021/06/26 15:15:11;;;;;;;;;;;25.80;90.20;;;26.03;39.24;95735.94;10460251;28;2074;-81
2021/06/26 15:20:14;;;;;;;;;;;26.40;89.90;;;25.98;37.23;95733.50;10459031;28;2098;-80
2021/06/26 15:25:16;;;;;;;;;;;26.80;86.60;;;25.53;39.60;95730.50;10455269;28;2001;-80
2021/06/26 15:30:19;;;;;;;;;;;26.80;87.20;;;24.70;42.46;95727.56;10456199;28;1852;-81
2021/06/26 15:35:25;;;;;;;;;;;26.10;89.80;;;24.24;44.06;95721.97;10453873;28;2083;-82
2021/06/26 15:40:28;;;;;;;;;;;25.50;92.10;;;25.10;41.78;95717.25;10441106;28;2237;-81
2021/06/26 15:45:32;;;;;;;;;;;25.80;91.50;;;24.85;41.34;95711.31;10459172;28;2231;-80
2021/06/26 15:50:35;;;;;;;;;;;25.90;89.80;;;24.49;44.09;95722.47;10459903;28;2096;-80
2021/06/26 15:55:39;;;;;;;;;;;25.80;92.00;;;23.86;46.85;95700.00;10461473;28;2110;-80
2021/06/26 16:00:41;;;;;;;;;;;25.20;95.00;;;23.89;47.08;95700.06;10467825;28;2241;-82
2021/06/26 16:05:44;;;;;;;;;;;24.90;96.80;;;24.60;45.01;95697.91;10465576;28;2224;-81
2021/06/26 16:10:47;;;;;;;;;;;25.20;96.30;;;24.32;46.44;95702.88;10473219;28;2198;-81
2021/06/26 16:15:49;;;;;;;;;;;25.30;96.50;;;24.02;46.35;95688.94;10468982;28;2198;-78
2021/06/26 16:20:52;;;;;;;;;;;25.00;96.50;;;23.89;46.39;95688.28;10464132;28;2245;-81
2021/06/26 16:25:55;;;;;;;;;;;25.10;96.00;;;23.73;46.70;95686.44;10462585;28;1946;-80
2021/06/26 16:30:58;;;;;;;;;;;24.90;96.50;;;23.61;47.26;95696.72;10474802;28;2101;-81
2021/06/26 16:36:02;;;;;;;;;;;24.70;97.40;;;23.67;46.77;95692.56;10473756;28;2304;-80
2021/06/26 16:41:05;;;;;;;;;;;24.70;97.30;;;23.26;48.14;95694.75;10483452;28;2312;-81
2021/06/26 16:46:08;;;;;;;;;;;24.40;97.90;;;23.39;48.04;95706.41;10493324;28;1892;-80
2021/06/26 16:51:11;;;;;;;;;;;24.40;98.50;;;23.22;48.06;95693.84;10477471;28;2101;-80
2021/06/26 16:56:14;;;;;;;;;;;24.20;98.60;;;22.92;48.98;95699.03;10467297;28;2021;-81
2021/06/26 17:01:16;;;;;;;;;;;24.00;99.10;;;23.02;49.08;95695.75;10473432;28;2166;-80
2021/06/26 17:06:19;;;;;;;;;;;24.00;99.70;;;23.07;48.72;95687.25;10480263;28;2069;-82
2021/06/26 17:11:22;;;;;;;;;;;24.00;99.80;;;23.09;48.98;95689.63;10457900;28;2034;-79
2021/06/26 17:16:25;;;;;;;;;;;23.90;99.90;;;23.18;48.58;95688.31;10485050;28;1798;-81
2021/06/26 17:21:27;;;;;;;;;;;24.00;99.90;;;22.99;48.66;95685.50;10479176;28;1868;-82
2021/06/26 17:26:30;;;;;;;;;;;24.10;99.40;;;22.81;49.00;95695.22;10491820;28;2162;-80
2021/06/26 17:31:33;;;;;;;;;;;23.90;99.70;;;22.62;48.99;95698.66;10488949;28;1801;-81
2021/06/26 17:36:36;;;;;;;;;;;23.70;99.80;;;22.58;49.46;95693.06;10500641;28;2020;-80
2021/06/26 17:41:38;;;;;;;;;;;23.60;99.90;;;22.48;49.81;95693.59;10506291;28;1898;-81
2021/06/26 17:46:41;;;;;;;;;;;23.50;99.90;;;22.65;49.42;95692.47;10493302;28;2457;-81
2021/06/26 17:51:44;;;;;;;;;;;23.50;99.90;;;22.45;49.28;95696.22;10486944;28;1898;-83
2021/06/26 17:56:46;;;;;;;;;;;23.40;99.90;;;22.36;49.65;95701.88;10484762;28;2091;-81
2021/06/26 18:01:49;;;;;;;;;;;23.30;99.90;;;22.43;49.33;95702.06;10466002;28;2096;-80
2021/06/26 18:06:52;;;;;;;;;;;23.30;99.90;;;22.35;49.29;95705.78;10464439;28;2107;-81
2021/06/26 18:11:55;;;;;;;;;;;23.20;99.90;;;22.05;49.50;95708.84;10440286;28;1856;-81
2021/06/26 18:16:58;;;;;;;;;;;23.10;99.70;;;22.33;48.64;95719.81;10469199;28;1979;-82
2021/06/26 18:22:00;;;;;;;;;;;23.20;99.90;;;22.48;48.72;95731.94;10471335;28;2092;-81
2021/06/26 18:27:03;;;;;;;;;;;23.20;99.90;;;22.56;48.34;95736.47;10473979;28;2054;-82
2021/06/26 18:32:06;;;;;;;;;;;23.40;99.60;;;22.56;48.60;95732.94;10468201;28;1825;-80
2021/06/26 18:37:09;;;;;;;;;;;23.40;99.70;;;22.50;48.88;95746.06;10468324;28;2066;-81
2021/06/26 18:42:12;;;;;;;;;;;23.40;99.90;;;22.32;49.65;95750.28;10468675;28;1907;-81
2021/06/26 18:47:15;;;;;;;;;;;23.30;99.90;;;21.91;50.78;95740.50;10456836;28;2040;-79
2021/06/26 18:52:18;;;;;;;;;;;23.00;99.90;;;21.76;51.55;95734.59;10500184;28;1955;-81
2021/06/26 18:57:20;;;;;;;;;;;22.80;99.90;;;21.65;52.18;95743.63;10491903;28;1683;-82
2021/06/26 19:02:23;;;;;;;;;;;22.70;99.90;;;21.45;52.84;95746.19;10491209;28;2089;-80
2021/06/26 19:07:26;;;;;;;;;;;22.50;99.90;;;21.25;53.42;95747.06;10456574;28;1890;-82
2021/06/26 19:12:28;;;;;;;;;;;22.40;99.90;;;21.10;54.37;95750.47;10481653;28;1784;-81
2021/06/26 19:17:31;;;;;;;;;;;22.20;99.90;;;20.84;55.25;95748.88;10487389;28;1808;-82
2021/06/26 19:22:34;;;;;;;;;;;22.00;99.90;;;20.68;56.36;95756.94;10489440;28;1626;-81
2021/06/26 19:27:37;;;;;;;;;;;21.80;99.90;;;20.45;57.29;95766.66;10486869;28;1894;-80
2021/06/26 19:32:39;;;;;;;;;;;21.70;99.90;;;20.29;57.95;95779.28;10470154;28;2044;-82
2021/06/26 19:37:45;;;;;;;;;;;21.50;99.90;;;20.16;58.90;95779.25;10465589;28;2067;-83
2021/06/26 19:42:47;;;;;;;;;;;21.30;99.90;;;20.05;59.47;95777.28;10467544;28;2300;-81
2021/06/26 19:47:50;;;;;;;;;;;21.20;99.90;;;20.01;60.20;95771.69;10491721;28;2300;-81
2021/06/26 19:52:53;;;;;;;;;;;21.10;99.90;;;19.84;60.94;95772.59;10469319;28;2300;-82
2021/06/26 19:57:56;;;;;;;;;;;21.00;99.90;;;19.65;62.08;95780.44;10458287;28;1924;-81
2021/06/26 20:02:58;;;;;;;;;;;20.90;99.90;;;19.61;62.66;95779.53;10465897;28;2003;-81
2021/06/26 20:08:01;;;;;;;;;;;20.70;99.90;;;19.53;63.01;95789.34;10461808;28;2033;-80
2021/06/26 20:13:04;;;;;;;;;;;20.70;99.90;;;19.53;63.34;95791.22;10472874;28;2284;-82
2021/06/26 20:18:07;;;;;;;;;;;20.60;99.90;;;19.34;64.30;95787.03;10462608;28;2085;-81
2021/06/26 20:23:10;;;;;;;;;;;20.40;99.90;;;19.32;64.73;95789.28;10448898;28;1894;-82
2021/06/26 20:28:13;;;;;;;;;;;20.40;99.90;;;19.21;65.53;95790.75;10466609;28;2073;-79
2021/06/26 20:33:15;;;;;;;;;;;20.40;99.90;;;19.05;66.40;95795.19;10469017;28;2176;-81
2021/06/26 20:38:18;;;;;;;;;;;20.20;99.90;;;19.09;67.34;95780.59;10442080;28;2074;-81
2021/06/26 20:43:21;;;;;;;;;;;20.20;99.90;;;19.06;67.51;95780.44;10490965;28;2322;-78
2021/06/26 20:48:24;;;;;;;;;;;20.10;99.90;;;18.86;68.70;95788.19;10485919;28;2000;-79
2021/06/26 20:53:26;;;;;;;;;;;20.00;99.90;;;18.77;69.33;95784.72;10492322;28;2148;-81
2021/06/26 20:58:29;;;;;;;;;;;19.90;99.90;;;18.61;69.89;95786.31;10490777;28;2146;-79
2021/06/26 21:03:32;;;;;;;;;;;19.90;99.90;;;18.58;70.13;95784.25;10486440;28;2075;-80
2021/06/26 21:08:34;;;;;;;;;;;19.80;99.90;;;18.68;70.19;95786.66;10457131;28;2147;-81
2021/06/26 21:13:37;;;;;;;;;;;19.70;99.90;;;18.66;70.19;95786.16;10466994;28;2145;-80
2021/06/26 21:18:40;;;;;;;;;;;19.70;99.90;;;18.62;69.96;95785.19;10476143;28;2116;-80
2021/06/26 21:23:42;;;;;;;;;;;19.60;99.90;;;18.66;69.78;95777.97;10481824;28;2156;-82
2021/06/26 21:28:45;;;;;;;;;;;19.60;99.90;;;18.56;69.95;95773.69;10462257;28;2167;-80
2021/06/26 21:33:48;;;;;;;;;;;19.70;99.90;;;18.44;70.43;95772.75;10464070;28;2156;-81
2021/06/26 21:38:51;;;;;;;;;;;19.60;99.90;;;18.41;71.29;95776.13;10456986;28;2010;-81
2021/06/26 21:43:54;;;;;;;;;;;19.50;99.90;;;18.18;72.30;95778.22;10478307;28;2047;-81
2021/06/26 21:48:57;;;;;;;;;;;19.30;99.90;;;18.22;72.75;95771.84;10484680;28;2059;-79
2021/06/26 21:54:00;;;;;;;;;;;19.20;99.90;;;18.15;73.43;95773.44;10456144;28;2222;-79
2021/06/26 21:59:03;;;;;;;;;;;19.30;99.90;;;18.16;73.71;95770.41;10479718;28;2199;-81
2021/06/26 22:04:06;;;;;;;;;;;19.20;99.90;;;18.03;74.60;95769.44;10450797;28;2090;-81
2021/06/26 22:09:08;;;;;;;;;;;19.10;99.90;;;18.01;75.27;95765.47;10451256;28;2079;-82
2021/06/26 22:14:11;;;;;;;;;;;19.00;99.90;;;18.00;75.25;95778.22;10464047;28;2071;-79
2021/06/26 22:19:19;;;;;;;;;;;19.00;99.90;;;17.85;76.42;95776.00;10462793;28;2328;-82
2021/06/26 22:24:22;;;;;;;;;;;19.00;99.90;;;17.78;77.41;95781.91;10448949;28;2176;-81
2021/06/26 22:29:24;;;;;;;;;;;18.90;99.90;;;17.67;78.21;95777.88;10465542;28;2091;-79
2021/06/26 22:34:27;;;;;;;;;;;18.80;99.90;;;17.67;78.44;95774.34;10462589;28;2048;-78
2021/06/26 22:39:30;;;;;;;;;;;18.80;99.90;;;17.52;79.30;95778.34;10479037;28;2163;-81
2021/06/26 22:44:32;;;;;;;;;;;18.70;99.90;;;17.53;79.35;95774.50;10464551;28;2102;-80
2021/06/26 22:49:35;;;;;;;;;;;18.60;99.90;;;17.41;80.01;95777.84;10445962;28;2191;-80
2021/06/26 22:54:38;;;;;;;;;;;18.60;99.90;;;17.33;79.92;95769.69;10462926;28;2286;-78
2021/06/26 23:05:06;;;;;;;;;;;18.40;99.90;;;17.36;79.65;95767.13;10465739;28;2133;-81
2021/06/26 23:10:09;;;;;;;;;;;18.40;99.90;;;17.29;80.43;95773.00;10471740;28;2076;-82
2021/06/26 23:15:12;;;;;;;;;;;18.40;99.90;;;17.17;81.17;95772.81;10445208;28;2138;-80